sensor_id;sensor_type;location;lat;lon;timestamp;temperature;humidity
23544;DHT22;11950;51.230;4.012;2023-09-19T00:00:42;16.50;99.90
23544;DHT22;11950;51.230;4.012;2023-09-19T00:03:10;16.40;99.90
23544;DHT22;11950;51.230;4.012;2023-09-19T00:05:38;16.40;99.90
23544;DHT22;11950;51.230;4.012;2023-09-19T00:08:05;16.40;99.90
23544;DHT22;11950;51.230;4.012;2023-09-19T00:10:33;16.30;99.90
23544;DHT22;11950;51.230;4.012;2023-09-19T00:13:02;16.30;99.90
23544;DHT22;11950;51.230;4.012;2023-09-19T00:15:37;16.30;99.90
23544;DHT22;11950;51.230;4.012;2023-09-19T00:18:05;16.30;99.90
23544;DHT22;11950;51.230;4.012;2023-09-19T00:20:38;16.30;99.90
23544;DHT22;11950;51.230;4.012;2023-09-19T00:23:05;16.20;99.90
23544;DHT22;11950;51.230;4.012;2023-09-19T00:25:37;16.20;99.90
23544;DHT22;11950;51.230;4.012;2023-09-19T00:28:04;16.20;99.90
23544;DHT22;11950;51.230;4.012;2023-09-19T00:30:32;16.10;99.90
23544;DHT22;11950;51.230;4.012;2023-09-19T00:32:59;16.10;99.90
23544;DHT22;11950;51.230;4.012;2023-09-19T00:35:26;16.10;99.90
23544;DHT22;11950;51.230;4.012;2023-09-19T00:37:54;16.10;99.90
23544;DHT22;11950;51.230;4.012;2023-09-19T00:40:21;16.10;99.90
23544;DHT22;11950;51.230;4.012;2023-09-19T00:42:49;16.10;99.90
23544;DHT22;11950;51.230;4.012;2023-09-19T00:45:16;16.10;99.90
23544;DHT22;11950;51.230;4.012;2023-09-19T00:47:50;16.10;99.90
23544;DHT22;11950;51.230;4.012;2023-09-19T00:50:22;16.00;99.90
23544;DHT22;11950;51.230;4.012;2023-09-19T00:52:52;16.00;99.90
23544;DHT22;11950;51.230;4.012;2023-09-19T00:55:19;15.90;99.90
23544;DHT22;11950;51.230;4.012;2023-09-19T00:57:46;15.90;99.90
23544;DHT22;11950;51.230;4.012;2023-09-19T01:00:15;15.90;99.90
23544;DHT22;11950;51.230;4.012;2023-09-19T01:02:42;15.90;99.90
23544;DHT22;11950;51.230;4.012;2023-09-19T01:05:10;15.90;99.90
23544;DHT22;11950;51.230;4.012;2023-09-19T01:07:36;15.90;99.90
23544;DHT22;11950;51.230;4.012;2023-09-19T01:10:17;15.90;99.90
23544;DHT22;11950;51.230;4.012;2023-09-19T01:15:43;15.90;99.90
23544;DHT22;11950;51.230;4.012;2023-09-19T01:18:21;15.90;99.90
23544;DHT22;11950;51.230;4.012;2023-09-19T01:20:57;15.80;99.90
23544;DHT22;11950;51.230;4.012;2023-09-19T01:26:30;15.80;99.90
23544;DHT22;11950;51.230;4.012;2023-09-19T01:32:04;15.70;99.90
23544;DHT22;11950;51.230;4.012;2023-09-19T01:34:51;15.70;99.90
23544;DHT22;11950;51.230;4.012;2023-09-19T01:37:20;15.70;99.90
23544;DHT22;11950;51.230;4.012;2023-09-19T01:39:52;15.70;99.90
23544;DHT22;11950;51.230;4.012;2023-09-19T01:42:39;15.70;99.90
23544;DHT22;11950;51.230;4.012;2023-09-19T01:48:05;15.60;99.90
23544;DHT22;11950;51.230;4.012;2023-09-19T01:50:55;15.60;99.90
23544;DHT22;11950;51.230;4.012;2023-09-19T01:56:02;15.60;99.90
23544;DHT22;11950;51.230;4.012;2023-09-19T01:58:42;15.60;99.90
23544;DHT22;11950;51.230;4.012;2023-09-19T02:01:19;15.50;99.90
23544;DHT22;11950;51.230;4.012;2023-09-19T02:03:47;15.50;99.90
23544;DHT22;11950;51.230;4.012;2023-09-19T02:06:15;15.50;99.90
23544;DHT22;11950;51.230;4.012;2023-09-19T02:08:42;15.60;99.90
23544;DHT22;11950;51.230;4.012;2023-09-19T02:11:08;15.60;99.90
23544;DHT22;11950;51.230;4.012;2023-09-19T02:13:34;15.60;99.90
23544;DHT22;11950;51.230;4.012;2023-09-19T02:16:00;15.60;99.90
23544;DHT22;11950;51.230;4.012;2023-09-19T02:18:27;15.60;99.90
23544;DHT22;11950;51.230;4.012;2023-09-19T02:20:54;15.60;99.90
23544;DHT22;11950;51.230;4.012;2023-09-19T02:23:23;15.60;99.90
23544;DHT22;11950;51.230;4.012;2023-09-19T02:25:53;15.60;99.90
23544;DHT22;11950;51.230;4.012;2023-09-19T02:28:21;15.60;99.90
23544;DHT22;11950;51.230;4.012;2023-09-19T02:30:48;15.60;99.90
23544;DHT22;11950;51.230;4.012;2023-09-19T02:33:16;15.60;99.90
23544;DHT22;11950;51.230;4.012;2023-09-19T02:35:43;15.60;99.90
23544;DHT22;11950;51.230;4.012;2023-09-19T02:38:09;15.60;99.90
23544;DHT22;11950;51.230;4.012;2023-09-19T02:40:38;15.60;99.90
23544;DHT22;11950;51.230;4.012;2023-09-19T02:43:06;15.60;99.90
23544;DHT22;11950;51.230;4.012;2023-09-19T02:45:34;15.60;99.90
23544;DHT22;11950;51.230;4.012;2023-09-19T02:48:00;15.60;99.90
23544;DHT22;11950;51.230;4.012;2023-09-19T02:50:28;15.60;99.90
23544;DHT22;11950;51.230;4.012;2023-09-19T02:52:54;15.60;99.90
23544;DHT22;11950;51.230;4.012;2023-09-19T02:55:21;15.60;99.90
23544;DHT22;11950;51.230;4.012;2023-09-19T02:57:49;15.60;99.90
23544;DHT22;11950;51.230;4.012;2023-09-19T03:00:18;15.60;99.90
23544;DHT22;11950;51.230;4.012;2023-09-19T03:02:49;15.60;99.90
23544;DHT22;11950;51.230;4.012;2023-09-19T03:05:15;15.60;99.90
23544;DHT22;11950;51.230;4.012;2023-09-19T03:07:42;15.60;99.90
23544;DHT22;11950;51.230;4.012;2023-09-19T03:10:18;15.60;99.90
23544;DHT22;11950;51.230;4.012;2023-09-19T03:12:46;15.60;99.90
23544;DHT22;11950;51.230;4.012;2023-09-19T03:15:14;15.60;99.90
23544;DHT22;11950;51.230;4.012;2023-09-19T03:17:46;15.70;99.90
23544;DHT22;11950;51.230;4.012;2023-09-19T03:20:16;15.70;99.90
23544;DHT22;11950;51.230;4.012;2023-09-19T03:22:48;15.70;99.90
23544;DHT22;11950;51.230;4.012;2023-09-19T03:25:15;15.70;99.90
23544;DHT22;11950;51.230;4.012;2023-09-19T03:27:46;15.80;99.90
23544;DHT22;11950;51.230;4.012;2023-09-19T03:30:13;15.80;99.90
23544;DHT22;11950;51.230;4.012;2023-09-19T03:32:48;15.90;99.90
23544;DHT22;11950;51.230;4.012;2023-09-19T03:35:17;15.90;99.90
23544;DHT22;11950;51.230;4.012;2023-09-19T03:37:43;16.00;99.90
23544;DHT22;11950;51.230;4.012;2023-09-19T03:40:11;16.00;99.90
23544;DHT22;11950;51.230;4.012;2023-09-19T03:42:39;16.10;99.90
23544;DHT22;11950;51.230;4.012;2023-09-19T03:45:10;16.10;99.90
23544;DHT22;11950;51.230;4.012;2023-09-19T03:47:39;16.10;99.90
23544;DHT22;11950;51.230;4.012;2023-09-19T03:50:08;16.10;99.90
23544;DHT22;11950;51.230;4.012;2023-09-19T03:52:37;16.10;99.90
23544;DHT22;11950;51.230;4.012;2023-09-19T03:55:03;16.10;99.90
23544;DHT22;11950;51.230;4.012;2023-09-19T03:57:32;16.20;99.90
23544;DHT22;11950;51.230;4.012;2023-09-19T03:59:58;16.20;99.90
23544;DHT22;11950;51.230;4.012;2023-09-19T04:02:25;16.20;99.90
23544;DHT22;11950;51.230;4.012;2023-09-19T04:04:52;16.10;99.90
23544;DHT22;11950;51.230;4.012;2023-09-19T04:07:19;16.20;99.90
23544;DHT22;11950;51.230;4.012;2023-09-19T04:09:48;16.20;99.90
23544;DHT22;11950;51.230;4.012;2023-09-19T04:12:15;16.20;99.90
23544;DHT22;11950;51.230;4.012;2023-09-19T04:14:45;16.20;99.90
23544;DHT22;11950;51.230;4.012;2023-09-19T04:17:12;16.20;99.90
23544;DHT22;11950;51.230;4.012;2023-09-19T04:19:38;16.20;99.90
23544;DHT22;11950;51.230;4.012;2023-09-19T04:22:05;16.20;99.90
23544;DHT22;11950;51.230;4.012;2023-09-19T04:24:31;16.20;99.90
23544;DHT22;11950;51.230;4.012;2023-09-19T04:26:59;16.20;99.90
23544;DHT22;11950;51.230;4.012;2023-09-19T04:29:25;16.20;99.90
23544;DHT22;11950;51.230;4.012;2023-09-19T04:31:56;16.20;99.90
23544;DHT22;11950;51.230;4.012;2023-09-19T04:34:23;16.10;99.90
23544;DHT22;11950;51.230;4.012;2023-09-19T04:36:50;16.10;99.90
23544;DHT22;11950;51.230;4.012;2023-09-19T04:39:16;16.10;99.90
23544;DHT22;11950;51.230;4.012;2023-09-19T04:41:43;16.10;99.90
23544;DHT22;11950;51.230;4.012;2023-09-19T04:44:11;16.10;99.90
23544;DHT22;11950;51.230;4.012;2023-09-19T04:46:39;16.10;99.90
23544;DHT22;11950;51.230;4.012;2023-09-19T04:49:06;16.10;99.90
23544;DHT22;11950;51.230;4.012;2023-09-19T04:51:32;16.10;99.90
23544;DHT22;11950;51.230;4.012;2023-09-19T04:54:00;16.00;99.90
23544;DHT22;11950;51.230;4.012;2023-09-19T04:56:27;16.00;99.90
23544;DHT22;11950;51.230;4.012;2023-09-19T04:58:54;16.10;99.90
23544;DHT22;11950;51.230;4.012;2023-09-19T05:01:21;16.10;99.90
23544;DHT22;11950;51.230;4.012;2023-09-19T05:03:49;16.10;99.90
23544;DHT22;11950;51.230;4.012;2023-09-19T05:06:19;16.00;99.90
23544;DHT22;11950;51.230;4.012;2023-09-19T05:08:49;16.00;99.90
23544;DHT22;11950;51.230;4.012;2023-09-19T05:11:19;16.00;99.90
23544;DHT22;11950;51.230;4.012;2023-09-19T05:13:48;16.00;99.90
23544;DHT22;11950;51.230;4.012;2023-09-19T05:16:19;16.00;99.90
23544;DHT22;11950;51.230;4.012;2023-09-19T05:18:45;15.90;99.90
23544;DHT22;11950;51.230;4.012;2023-09-19T05:21:11;16.00;99.90
23544;DHT22;11950;51.230;4.012;2023-09-19T05:23:38;16.00;99.90
23544;DHT22;11950;51.230;4.012;2023-09-19T05:26:04;16.00;99.90
23544;DHT22;11950;51.230;4.012;2023-09-19T05:28:31;16.00;99.90
23544;DHT22;11950;51.230;4.012;2023-09-19T05:31:00;16.00;99.90
23544;DHT22;11950;51.230;4.012;2023-09-19T05:33:28;16.00;99.90
23544;DHT22;11950;51.230;4.012;2023-09-19T05:35:57;16.10;99.90
23544;DHT22;11950;51.230;4.012;2023-09-19T05:38:24;16.10;99.90
23544;DHT22;11950;51.230;4.012;2023-09-19T05:40:53;16.10;99.90
23544;DHT22;11950;51.230;4.012;2023-09-19T05:43:20;16.10;99.90
23544;DHT22;11950;51.230;4.012;2023-09-19T05:45:46;16.10;99.90
23544;DHT22;11950;51.230;4.012;2023-09-19T05:48:14;16.10;99.90
23544;DHT22;11950;51.230;4.012;2023-09-19T05:50:43;16.10;99.90
23544;DHT22;11950;51.230;4.012;2023-09-19T05:53:09;16.20;99.90
23544;DHT22;11950;51.230;4.012;2023-09-19T05:55:38;16.20;99.90
23544;DHT22;11950;51.230;4.012;2023-09-19T05:58:05;16.20;99.90
23544;DHT22;11950;51.230;4.012;2023-09-19T06:00:32;16.20;99.90
23544;DHT22;11950;51.230;4.012;2023-09-19T06:02:59;16.20;99.90
23544;DHT22;11950;51.230;4.012;2023-09-19T06:05:26;16.30;99.90
23544;DHT22;11950;51.230;4.012;2023-09-19T06:07:53;16.30;99.90
23544;DHT22;11950;51.230;4.012;2023-09-19T06:10:20;16.30;99.90
23544;DHT22;11950;51.230;4.012;2023-09-19T06:12:49;16.30;99.90
23544;DHT22;11950;51.230;4.012;2023-09-19T06:15:16;16.30;99.90
23544;DHT22;11950;51.230;4.012;2023-09-19T06:17:49;16.40;99.90
23544;DHT22;11950;51.230;4.012;2023-09-19T06:20:16;16.40;99.90
23544;DHT22;11950;51.230;4.012;2023-09-19T06:22:43;16.40;99.90
23544;DHT22;11950;51.230;4.012;2023-09-19T06:25:10;16.30;99.90
23544;DHT22;11950;51.230;4.012;2023-09-19T06:27:40;16.40;99.90
23544;DHT22;11950;51.230;4.012;2023-09-19T06:30:11;16.40;99.90
23544;DHT22;11950;51.230;4.012;2023-09-19T06:32:38;16.40;99.90
23544;DHT22;11950;51.230;4.012;2023-09-19T06:35:05;16.40;99.90
23544;DHT22;11950;51.230;4.012;2023-09-19T06:37:34;16.50;99.90
23544;DHT22;11950;51.230;4.012;2023-09-19T06:40:01;16.50;99.90
23544;DHT22;11950;51.230;4.012;2023-09-19T06:42:27;16.50;99.90
23544;DHT22;11950;51.230;4.012;2023-09-19T06:44:54;16.60;99.90
23544;DHT22;11950;51.230;4.012;2023-09-19T06:47:20;16.60;99.90
23544;DHT22;11950;51.230;4.012;2023-09-19T06:49:46;16.60;99.90
23544;DHT22;11950;51.230;4.012;2023-09-19T06:52:14;16.60;99.90
23544;DHT22;11950;51.230;4.012;2023-09-19T06:54:41;16.60;99.90
23544;DHT22;11950;51.230;4.012;2023-09-19T06:57:08;16.70;99.90
23544;DHT22;11950;51.230;4.012;2023-09-19T06:59:35;16.70;99.90
23544;DHT22;11950;51.230;4.012;2023-09-19T07:02:03;16.70;99.90
23544;DHT22;11950;51.230;4.012;2023-09-19T07:04:32;16.70;99.90
23544;DHT22;11950;51.230;4.012;2023-09-19T07:06:59;16.70;99.90
23544;DHT22;11950;51.230;4.012;2023-09-19T07:09:25;16.80;99.90
23544;DHT22;11950;51.230;4.012;2023-09-19T07:11:54;16.80;99.90
23544;DHT22;11950;51.230;4.012;2023-09-19T07:14:20;16.90;99.90
23544;DHT22;11950;51.230;4.012;2023-09-19T07:16:46;16.90;99.90
23544;DHT22;11950;51.230;4.012;2023-09-19T07:19:13;16.90;99.90
23544;DHT22;11950;51.230;4.012;2023-09-19T07:21:41;17.00;99.90
23544;DHT22;11950;51.230;4.012;2023-09-19T07:24:08;17.00;99.90
23544;DHT22;11950;51.230;4.012;2023-09-19T07:26:34;17.10;99.90
23544;DHT22;11950;51.230;4.012;2023-09-19T07:29:00;17.10;99.90
23544;DHT22;11950;51.230;4.012;2023-09-19T07:31:30;17.10;99.90
23544;DHT22;11950;51.230;4.012;2023-09-19T07:33:57;17.10;99.90
23544;DHT22;11950;51.230;4.012;2023-09-19T07:36:23;17.20;99.90
23544;DHT22;11950;51.230;4.012;2023-09-19T07:38:50;17.20;99.90
23544;DHT22;11950;51.230;4.012;2023-09-19T07:41:16;17.30;99.90
23544;DHT22;11950;51.230;4.012;2023-09-19T07:43:43;17.40;99.90
23544;DHT22;11950;51.230;4.012;2023-09-19T07:46:10;17.40;99.90
23544;DHT22;11950;51.230;4.012;2023-09-19T07:48:38;17.50;99.90
23544;DHT22;11950;51.230;4.012;2023-09-19T07:51:05;17.50;99.90
23544;DHT22;11950;51.230;4.012;2023-09-19T07:53:33;17.60;99.90
23544;DHT22;11950;51.230;4.012;2023-09-19T07:56:05;17.60;99.90
23544;DHT22;11950;51.230;4.012;2023-09-19T07:58:31;17.60;99.90
23544;DHT22;11950;51.230;4.012;2023-09-19T08:01:09;17.70;99.90
23544;DHT22;11950;51.230;4.012;2023-09-19T08:03:39;17.70;99.90
23544;DHT22;11950;51.230;4.012;2023-09-19T08:06:07;17.80;99.90
23544;DHT22;11950;51.230;4.012;2023-09-19T08:08:34;17.80;99.90
23544;DHT22;11950;51.230;4.012;2023-09-19T08:11:04;17.90;99.90
23544;DHT22;11950;51.230;4.012;2023-09-19T08:13:39;17.90;99.90
23544;DHT22;11950;51.230;4.012;2023-09-19T08:16:12;18.00;99.90
23544;DHT22;11950;51.230;4.012;2023-09-19T08:18:41;18.10;99.90
23544;DHT22;11950;51.230;4.012;2023-09-19T08:21:08;18.10;99.90
23544;DHT22;11950;51.230;4.012;2023-09-19T08:23:37;18.20;99.90
23544;DHT22;11950;51.230;4.012;2023-09-19T08:26:08;18.30;99.90
23544;DHT22;11950;51.230;4.012;2023-09-19T08:28:35;18.30;99.90
23544;DHT22;11950;51.230;4.012;2023-09-19T08:31:02;18.40;99.90
23544;DHT22;11950;51.230;4.012;2023-09-19T08:33:34;18.40;99.90
23544;DHT22;11950;51.230;4.012;2023-09-19T08:36:02;18.40;99.90
23544;DHT22;11950;51.230;4.012;2023-09-19T08:38:34;18.50;99.90
23544;DHT22;11950;51.230;4.012;2023-09-19T08:41:05;18.50;99.90
23544;DHT22;11950;51.230;4.012;2023-09-19T08:43:32;18.50;99.90
23544;DHT22;11950;51.230;4.012;2023-09-19T08:46:11;18.50;99.90
23544;DHT22;11950;51.230;4.012;2023-09-19T08:49:04;18.50;99.90
23544;DHT22;11950;51.230;4.012;2023-09-19T08:51:44;18.50;99.90
23544;DHT22;11950;51.230;4.012;2023-09-19T08:54:30;18.50;99.90
23544;DHT22;11950;51.230;4.012;2023-09-19T08:57:01;18.50;99.90
23544;DHT22;11950;51.230;4.012;2023-09-19T08:59:30;18.50;99.90
23544;DHT22;11950;51.230;4.012;2023-09-19T09:01:57;18.50;99.90
23544;DHT22;11950;51.230;4.012;2023-09-19T09:04:24;18.60;99.90
23544;DHT22;11950;51.230;4.012;2023-09-19T09:06:52;18.60;99.90
23544;DHT22;11950;51.230;4.012;2023-09-19T09:09:20;18.70;99.90
23544;DHT22;11950;51.230;4.012;2023-09-19T09:11:48;18.70;99.90
23544;DHT22;11950;51.230;4.012;2023-09-19T09:14:20;18.70;99.90
23544;DHT22;11950;51.230;4.012;2023-09-19T09:16:47;18.80;99.90
23544;DHT22;11950;51.230;4.012;2023-09-19T09:19:15;18.80;99.90
23544;DHT22;11950;51.230;4.012;2023-09-19T09:21:51;18.80;99.90
23544;DHT22;11950;51.230;4.012;2023-09-19T09:24:30;18.80;99.90
23544;DHT22;11950;51.230;4.012;2023-09-19T09:27:00;18.80;99.90
23544;DHT22;11950;51.230;4.012;2023-09-19T09:29:43;18.90;99.90
23544;DHT22;11950;51.230;4.012;2023-09-19T09:32:29;18.90;99.90
23544;DHT22;11950;51.230;4.012;2023-09-19T09:35:00;19.00;99.90
23544;DHT22;11950;51.230;4.012;2023-09-19T09:37:28;19.00;99.90
23544;DHT22;11950;51.230;4.012;2023-09-19T09:39:58;19.00;99.90
23544;DHT22;11950;51.230;4.012;2023-09-19T09:42:35;19.00;99.90
23544;DHT22;11950;51.230;4.012;2023-09-19T09:45:21;19.10;99.90
23544;DHT22;11950;51.230;4.012;2023-09-19T09:48:00;19.20;99.90
23544;DHT22;11950;51.230;4.012;2023-09-19T09:50:31;19.20;99.90
23544;DHT22;11950;51.230;4.012;2023-09-19T09:53:25;19.30;99.90
23544;DHT22;11950;51.230;4.012;2023-09-19T09:56:04;19.40;99.90
23544;DHT22;11950;51.230;4.012;2023-09-19T09:58:36;19.40;99.90
23544;DHT22;11950;51.230;4.012;2023-09-19T10:01:04;19.50;99.90
23544;DHT22;11950;51.230;4.012;2023-09-19T10:03:38;19.50;99.90
23544;DHT22;11950;51.230;4.012;2023-09-19T10:06:11;19.60;99.90
23544;DHT22;11950;51.230;4.012;2023-09-19T10:08:59;19.70;99.90
23544;DHT22;11950;51.230;4.012;2023-09-19T10:12:03;19.80;99.90
23544;DHT22;11950;51.230;4.012;2023-09-19T10:14:30;19.90;99.90
23544;DHT22;11950;51.230;4.012;2023-09-19T10:16:59;20.00;99.90
23544;DHT22;11950;51.230;4.012;2023-09-19T10:19:36;20.00;99.90
23544;DHT22;11950;51.230;4.012;2023-09-19T10:22:04;20.10;99.90
23544;DHT22;11950;51.230;4.012;2023-09-19T10:24:33;20.20;99.90
23544;DHT22;11950;51.230;4.012;2023-09-19T10:27:03;20.30;99.90
23544;DHT22;11950;51.230;4.012;2023-09-19T10:29:32;20.30;99.90
23544;DHT22;11950;51.230;4.012;2023-09-19T10:32:03;20.40;99.90
23544;DHT22;11950;51.230;4.012;2023-09-19T10:34:38;20.40;99.90
23544;DHT22;11950;51.230;4.012;2023-09-19T10:37:08;20.50;99.90
23544;DHT22;11950;51.230;4.012;2023-09-19T10:39:39;20.70;99.90
23544;DHT22;11950;51.230;4.012;2023-09-19T10:42:07;20.70;99.90
23544;DHT22;11950;51.230;4.012;2023-09-19T10:44:41;20.80;99.90
23544;DHT22;11950;51.230;4.012;2023-09-19T10:47:09;20.80;99.90
23544;DHT22;11950;51.230;4.012;2023-09-19T10:49:46;20.90;99.90
23544;DHT22;11950;51.230;4.012;2023-09-19T10:52:20;20.90;99.90
23544;DHT22;11950;51.230;4.012;2023-09-19T10:54:49;20.90;99.90
23544;DHT22;11950;51.230;4.012;2023-09-19T10:57:25;21.00;99.90
23544;DHT22;11950;51.230;4.012;2023-09-19T11:00:04;21.00;99.90
23544;DHT22;11950;51.230;4.012;2023-09-19T11:05:41;21.10;99.90
23544;DHT22;11950;51.230;4.012;2023-09-19T11:08:08;21.20;99.90
23544;DHT22;11950;51.230;4.012;2023-09-19T11:10:49;21.20;99.90
23544;DHT22;11950;51.230;4.012;2023-09-19T11:13:26;21.20;99.90
23544;DHT22;11950;51.230;4.012;2023-09-19T11:26:51;21.20;99.90
23544;DHT22;11950;51.230;4.012;2023-09-19T11:29:27;21.20;99.90
23544;DHT22;11950;51.230;4.012;2023-09-19T11:31:55;21.30;99.90
23544;DHT22;11950;51.230;4.012;2023-09-19T11:34:40;21.30;99.90
23544;DHT22;11950;51.230;4.012;2023-09-19T11:40:10;21.30;99.90
23544;DHT22;11950;51.230;4.012;2023-09-19T11:46:00;21.30;99.90
23544;DHT22;11950;51.230;4.012;2023-09-19T11:48:26;21.40;99.90
23544;DHT22;11950;51.230;4.012;2023-09-19T11:50:53;21.40;99.90
23544;DHT22;11950;51.230;4.012;2023-09-19T11:53:21;21.40;99.90
23544;DHT22;11950;51.230;4.012;2023-09-19T11:55:49;21.40;99.90
23544;DHT22;11950;51.230;4.012;2023-09-19T11:58:18;21.40;99.90
23544;DHT22;11950;51.230;4.012;2023-09-19T12:00:46;21.40;99.90
23544;DHT22;11950;51.230;4.012;2023-09-19T12:03:21;21.30;99.90
23544;DHT22;11950;51.230;4.012;2023-09-19T12:05:48;21.30;99.90
23544;DHT22;11950;51.230;4.012;2023-09-19T12:08:15;21.30;99.90
23544;DHT22;11950;51.230;4.012;2023-09-19T12:10:50;21.30;99.90
23544;DHT22;11950;51.230;4.012;2023-09-19T12:13:18;21.30;99.90
23544;DHT22;11950;51.230;4.012;2023-09-19T12:15:45;21.30;99.90
23544;DHT22;11950;51.230;4.012;2023-09-19T12:18:28;21.30;99.90
23544;DHT22;11950;51.230;4.012;2023-09-19T12:20:56;21.30;99.90
23544;DHT22;11950;51.230;4.012;2023-09-19T12:23:24;21.30;99.90
23544;DHT22;11950;51.230;4.012;2023-09-19T12:25:52;21.30;99.90
23544;DHT22;11950;51.230;4.012;2023-09-19T12:28:26;21.30;99.90
23544;DHT22;11950;51.230;4.012;2023-09-19T12:30:53;21.30;99.90
23544;DHT22;11950;51.230;4.012;2023-09-19T12:33:21;21.30;99.90
23544;DHT22;11950;51.230;4.012;2023-09-19T12:35:51;21.30;99.90
23544;DHT22;11950;51.230;4.012;2023-09-19T12:38:26;21.20;99.90
23544;DHT22;11950;51.230;4.012;2023-09-19T12:41:01;21.20;99.90
23544;DHT22;11950;51.230;4.012;2023-09-19T12:43:31;21.20;99.90
23544;DHT22;11950;51.230;4.012;2023-09-19T12:46:02;21.20;99.90
23544;DHT22;11950;51.230;4.012;2023-09-19T12:48:29;21.20;99.90
23544;DHT22;11950;51.230;4.012;2023-09-19T12:53:35;21.20;99.90
23544;DHT22;11950;51.230;4.012;2023-09-19T12:56:07;21.20;99.90
23544;DHT22;11950;51.230;4.012;2023-09-19T12:58:51;21.30;99.90
23544;DHT22;11950;51.230;4.012;2023-09-19T13:01:17;21.20;99.90
23544;DHT22;11950;51.230;4.012;2023-09-19T13:03:43;21.30;99.90
23544;DHT22;11950;51.230;4.012;2023-09-19T13:06:10;21.20;99.90
23544;DHT22;11950;51.230;4.012;2023-09-19T13:08:40;21.20;99.90
23544;DHT22;11950;51.230;4.012;2023-09-19T13:11:11;21.20;99.90
23544;DHT22;11950;51.230;4.012;2023-09-19T13:13:47;21.20;99.90
23544;DHT22;11950;51.230;4.012;2023-09-19T13:16:21;21.20;99.90
23544;DHT22;11950;51.230;4.012;2023-09-19T13:18:53;21.20;99.90
23544;DHT22;11950;51.230;4.012;2023-09-19T13:21:32;21.20;99.90
23544;DHT22;11950;51.230;4.012;2023-09-19T13:24:23;21.30;99.90
23544;DHT22;11950;51.230;4.012;2023-09-19T13:26:51;21.30;99.90
23544;DHT22;11950;51.230;4.012;2023-09-19T13:29:18;21.30;99.90
23544;DHT22;11950;51.230;4.012;2023-09-19T13:31:52;21.30;99.90
23544;DHT22;11950;51.230;4.012;2023-09-19T13:34:21;21.40;99.90
23544;DHT22;11950;51.230;4.012;2023-09-19T13:36:48;21.40;99.90
23544;DHT22;11950;51.230;4.012;2023-09-19T13:39:17;21.50;99.90
23544;DHT22;11950;51.230;4.012;2023-09-19T13:41:45;21.50;99.90
23544;DHT22;11950;51.230;4.012;2023-09-19T13:44:12;21.50;99.90
23544;DHT22;11950;51.230;4.012;2023-09-19T13:46:38;21.60;99.90
23544;DHT22;11950;51.230;4.012;2023-09-19T13:49:05;21.60;99.90
23544;DHT22;11950;51.230;4.012;2023-09-19T13:51:32;21.60;99.90
23544;DHT22;11950;51.230;4.012;2023-09-19T13:53:58;21.60;99.90
23544;DHT22;11950;51.230;4.012;2023-09-19T13:56:28;21.60;99.90
23544;DHT22;11950;51.230;4.012;2023-09-19T13:58:54;21.50;99.90
23544;DHT22;11950;51.230;4.012;2023-09-19T14:01:21;21.50;99.90
23544;DHT22;11950;51.230;4.012;2023-09-19T14:03:47;21.40;99.90
23544;DHT22;11950;51.230;4.012;2023-09-19T14:06:16;21.40;99.90
23544;DHT22;11950;51.230;4.012;2023-09-19T14:08:44;21.30;99.90
23544;DHT22;11950;51.230;4.012;2023-09-19T14:11:14;21.30;99.90
23544;DHT22;11950;51.230;4.012;2023-09-19T14:13:40;21.20;99.90
23544;DHT22;11950;51.230;4.012;2023-09-19T14:16:07;21.20;99.90
23544;DHT22;11950;51.230;4.012;2023-09-19T14:18:35;21.20;99.90
23544;DHT22;11950;51.230;4.012;2023-09-19T14:21:05;21.20;99.90
23544;DHT22;11950;51.230;4.012;2023-09-19T14:23:38;21.10;99.90
23544;DHT22;11950;51.230;4.012;2023-09-19T14:26:04;21.10;99.90
23544;DHT22;11950;51.230;4.012;2023-09-19T14:28:34;21.10;99.90
23544;DHT22;11950;51.230;4.012;2023-09-19T14:31:07;21.10;99.90
23544;DHT22;11950;51.230;4.012;2023-09-19T14:33:34;21.20;99.90
23544;DHT22;11950;51.230;4.012;2023-09-19T14:36:07;21.10;99.90
23544;DHT22;11950;51.230;4.012;2023-09-19T14:38:35;21.10;99.90
23544;DHT22;11950;51.230;4.012;2023-09-19T14:41:03;21.10;99.90
23544;DHT22;11950;51.230;4.012;2023-09-19T14:43:30;21.00;99.90
23544;DHT22;11950;51.230;4.012;2023-09-19T14:46:05;21.00;99.90
23544;DHT22;11950;51.230;4.012;2023-09-19T14:48:33;20.90;99.90
23544;DHT22;11950;51.230;4.012;2023-09-19T14:51:04;20.90;99.90
23544;DHT22;11950;51.230;4.012;2023-09-19T14:53:34;20.90;99.90
23544;DHT22;11950;51.230;4.012;2023-09-19T14:56:01;20.90;99.90
23544;DHT22;11950;51.230;4.012;2023-09-19T14:58:34;20.90;99.90
23544;DHT22;11950;51.230;4.012;2023-09-19T15:01:09;20.90;99.90
23544;DHT22;11950;51.230;4.012;2023-09-19T15:03:40;20.90;99.90
23544;DHT22;11950;51.230;4.012;2023-09-19T15:06:11;20.90;99.90
23544;DHT22;11950;51.230;4.012;2023-09-19T15:08:41;20.90;99.90
23544;DHT22;11950;51.230;4.012;2023-09-19T15:11:11;20.90;99.90
23544;DHT22;11950;51.230;4.012;2023-09-19T15:13:38;20.90;99.90
23544;DHT22;11950;51.230;4.012;2023-09-19T15:16:07;20.90;99.90
23544;DHT22;11950;51.230;4.012;2023-09-19T15:18:41;20.90;99.90
23544;DHT22;11950;51.230;4.012;2023-09-19T15:21:10;20.90;99.90
23544;DHT22;11950;51.230;4.012;2023-09-19T15:23:38;20.90;99.90
23544;DHT22;11950;51.230;4.012;2023-09-19T15:26:05;20.80;99.90
23544;DHT22;11950;51.230;4.012;2023-09-19T15:28:32;20.80;99.90
23544;DHT22;11950;51.230;4.012;2023-09-19T15:31:07;20.80;99.90
23544;DHT22;11950;51.230;4.012;2023-09-19T15:33:34;20.80;99.90
23544;DHT22;11950;51.230;4.012;2023-09-19T15:38:57;20.70;99.90
23544;DHT22;11950;51.230;4.012;2023-09-19T15:41:25;20.70;99.90
23544;DHT22;11950;51.230;4.012;2023-09-19T15:43:52;20.60;99.90
23544;DHT22;11950;51.230;4.012;2023-09-19T15:46:19;20.60;99.90
23544;DHT22;11950;51.230;4.012;2023-09-19T15:48:46;20.60;99.90
23544;DHT22;11950;51.230;4.012;2023-09-19T15:51:12;20.60;99.90
23544;DHT22;11950;51.230;4.012;2023-09-19T15:53:48;20.60;99.90
23544;DHT22;11950;51.230;4.012;2023-09-19T15:56:18;20.60;99.90
23544;DHT22;11950;51.230;4.012;2023-09-19T15:58:47;20.60;99.90
23544;DHT22;11950;51.230;4.012;2023-09-19T16:01:14;20.50;99.90
23544;DHT22;11950;51.230;4.012;2023-09-19T16:03:46;20.50;99.90
23544;DHT22;11950;51.230;4.012;2023-09-19T16:06:14;20.60;99.90
23544;DHT22;11950;51.230;4.012;2023-09-19T16:08:42;20.60;99.90
23544;DHT22;11950;51.230;4.012;2023-09-19T16:11:10;20.60;99.90
23544;DHT22;11950;51.230;4.012;2023-09-19T16:13:37;20.60;99.90
23544;DHT22;11950;51.230;4.012;2023-09-19T16:16:04;20.60;99.90
23544;DHT22;11950;51.230;4.012;2023-09-19T16:18:31;20.50;99.90
23544;DHT22;11950;51.230;4.012;2023-09-19T16:21:02;20.50;99.90
23544;DHT22;11950;51.230;4.012;2023-09-19T16:23:29;20.50;99.90
23544;DHT22;11950;51.230;4.012;2023-09-19T16:26:08;20.50;99.90